createdAt,value
2023-03-22T00:00:02.388Z,10.82
2023-03-22T00:05:09.667Z,10.72
2023-03-22T00:10:15.009Z,10.87
2023-03-22T00:15:22.499Z,10.66
2023-03-22T00:20:31.598Z,10.61
2023-03-22T00:25:36.815Z,10.63
2023-03-22T00:30:42.466Z,10.75
2023-03-22T00:35:51.743Z,10.84
2023-03-22T00:40:56.889Z,10.82
2023-03-22T00:46:04.420Z,10.85
2023-03-22T00:51:11.842Z,10.71
2023-03-22T00:56:18.453Z,10.81
2023-03-22T01:01:38.954Z,10.79
2023-03-22T01:06:44.435Z,10.84
2023-03-22T01:11:49.999Z,10.96
2023-03-22T01:17:00.034Z,11.20
2023-03-22T01:22:06.765Z,11.56
2023-03-22T01:27:13.199Z,11.77
2023-03-22T01:32:18.503Z,11.92
2023-03-22T01:37:29.121Z,12.07
2023-03-22T01:42:34.489Z,12.29
2023-03-22T01:47:54.227Z,12.55
2023-03-22T01:52:59.391Z,12.74
2023-03-22T01:58:10.333Z,12.69
2023-03-22T02:03:49.394Z,12.76
2023-03-22T02:08:59.154Z,12.74
2023-03-22T02:14:34.284Z,12.74
2023-03-22T02:20:17.681Z,12.53
2023-03-22T02:25:30.433Z,12.76
2023-03-22T02:30:57.360Z,12.94
2023-03-22T02:36:40.473Z,13.21
2023-03-22T02:42:03.955Z,13.29
2023-03-22T02:47:29.852Z,13.58
2023-03-22T02:52:57.557Z,13.56
2023-03-22T02:58:10.094Z,13.73
2023-03-22T03:03:22.355Z,13.64
2023-03-22T03:08:29.648Z,13.89
2023-03-22T03:13:37.596Z,14.04
2023-03-22T03:19:09.000Z,14.04
2023-03-22T03:24:29.360Z,13.82
2023-03-22T03:29:47.057Z,13.58
2023-03-22T03:35:08.828Z,13.56
2023-03-22T03:40:19.824Z,13.63
2023-03-22T03:45:27.594Z,13.66
2023-03-22T03:50:34.636Z,13.80
2023-03-22T03:55:40.920Z,14.03
2023-03-22T04:00:47.827Z,14.21
2023-03-22T04:06:02.382Z,14.47
2023-03-22T04:11:12.026Z,14.50
2023-03-22T04:16:18.891Z,14.61
2023-03-22T04:21:24.154Z,14.68
2023-03-22T04:26:36.558Z,14.92
2023-03-22T04:31:59.462Z,14.84
2023-03-22T04:37:15.509Z,14.90
2023-03-22T04:42:31.859Z,14.82
2023-03-22T04:47:48.080Z,14.95
2023-03-22T04:52:53.490Z,15.14
2023-03-22T04:57:59.292Z,15.10
2023-03-22T05:03:05.810Z,15.11
2023-03-22T05:08:18.346Z,15.14
2023-03-22T05:13:31.104Z,15.22
2023-03-22T05:18:39.201Z,15.22
2023-03-22T05:23:45.935Z,15.32
2023-03-22T05:28:52.894Z,15.39
2023-03-22T05:34:06.122Z,15.59
2023-03-22T05:39:13.805Z,15.63
2023-03-22T05:44:19.783Z,15.81
2023-03-22T05:49:48.126Z,15.98
2023-03-22T05:54:53.537Z,16.17
2023-03-22T05:59:59.673Z,16.27
2023-03-22T06:05:19.771Z,16.23
2023-03-22T06:10:28.366Z,16.03
2023-03-22T06:15:34.218Z,16.10
2023-03-22T06:20:45.588Z,16.04
2023-03-22T06:25:55.921Z,15.90
2023-03-22T06:31:12.461Z,15.65
2023-03-22T06:36:24.804Z,15.59
2023-03-22T06:41:42.457Z,15.63
2023-03-22T06:46:49.239Z,15.49
2023-03-22T06:52:20.757Z,15.49
2023-03-22T06:57:27.627Z,15.40
2023-03-22T07:02:33.446Z,15.25
2023-03-22T07:08:04.760Z,15.22
2023-03-22T07:13:13.290Z,15.09
2023-03-22T07:18:18.920Z,15.05
2023-03-22T07:23:25.293Z,15.04
2023-03-22T07:28:36.892Z,15.09
2023-03-22T07:33:43.033Z,14.98
2023-03-22T07:38:49.250Z,15.06
2023-03-22T07:44:15.214Z,15.14
2023-03-22T07:49:42.779Z,15.22
2023-03-22T07:54:54.480Z,15.22
2023-03-22T08:00:00.465Z,15.29
2023-03-22T08:05:20.073Z,15.32
2023-03-22T08:10:35.304Z,15.27
2023-03-22T08:15:42.207Z,15.28
2023-03-22T08:20:48.747Z,15.34
2023-03-22T08:25:58.904Z,15.41
2023-03-22T08:31:04.386Z,15.44
2023-03-22T08:36:12.247Z,15.49
2023-03-22T08:41:24.892Z,15.49
2023-03-22T08:46:31.283Z,15.47
2023-03-22T08:51:36.002Z,15.42
2023-03-22T08:57:10.760Z,15.32
2023-03-22T09:02:52.402Z,15.18
2023-03-22T09:08:05.863Z,15.06
2023-03-22T09:13:23.266Z,14.98
2023-03-22T09:18:37.413Z,14.84
2023-03-22T09:23:49.193Z,14.75
2023-03-22T09:28:57.263Z,14.65
2023-03-22T09:34:04.075Z,14.58
2023-03-22T09:39:11.504Z,14.50
2023-03-22T09:44:43.144Z,14.42
2023-03-22T09:50:05.205Z,14.34
2023-03-22T09:55:24.116Z,14.31
2023-03-22T10:00:52.945Z,14.19
2023-03-22T10:06:25.775Z,14.16
2023-03-22T10:11:38.259Z,14.04
2023-03-22T10:16:46.482Z,13.85
2023-03-22T10:21:55.478Z,13.70
2023-03-22T10:27:02.288Z,13.51
2023-03-22T10:32:19.555Z,13.36
2023-03-22T10:37:34.502Z,13.22
2023-03-22T10:42:41.287Z,13.13
2023-03-22T10:47:59.449Z,13.04
2023-03-22T10:53:26.863Z,12.96
2023-03-22T10:58:34.949Z,12.90
2023-03-22T11:03:53.237Z,12.82
2023-03-22T11:09:15.836Z,12.71
2023-03-22T11:14:38.233Z,12.60
2023-03-22T11:19:57.284Z,12.49
2023-03-22T11:25:05.104Z,12.43
2023-03-22T11:30:30.716Z,12.43
2023-03-22T11:35:40.397Z,12.36
2023-03-22T11:40:55.753Z,12.32
2023-03-22T11:46:04.485Z,12.25
2023-03-22T11:51:19.996Z,12.18
2023-03-22T11:56:32.905Z,12.09
2023-03-22T12:01:45.984Z,11.99
2023-03-22T12:06:56.794Z,11.75
2023-03-22T12:12:06.125Z,11.42
2023-03-22T12:17:38.704Z,11.12
2023-03-22T12:22:59.638Z,10.92
2023-03-22T12:28:13.385Z,10.88
2023-03-22T12:33:21.342Z,10.88
2023-03-22T12:38:41.912Z,10.84
2023-03-22T12:44:02.052Z,10.73
2023-03-22T12:49:40.005Z,10.74
2023-03-22T12:54:46.401Z,10.79
2023-03-22T12:59:55.179Z,10.83
2023-03-22T13:05:06.139Z,10.83
2023-03-22T13:10:31.663Z,10.81
2023-03-22T13:15:42.516Z,10.80
2023-03-22T13:21:17.682Z,10.74
2023-03-22T13:26:29.702Z,10.84
2023-03-22T13:32:02.527Z,10.83
2023-03-22T13:37:26.681Z,10.70
2023-03-22T13:42:45.041Z,10.68
2023-03-22T13:48:15.303Z,10.74
2023-03-22T13:53:37.982Z,10.72
2023-03-22T13:58:54.324Z,10.68
2023-03-22T14:04:09.108Z,10.65
2023-03-22T14:09:28.173Z,10.66
2023-03-22T14:14:45.311Z,10.50
2023-03-22T14:19:53.785Z,10.55
